Accueil
METAR-TAF:

METAR-TAF

Aéroports :

Aéroport de Newquay Cornouailles

Newquay Cornwall, Angleterre

latitude: 50-26N, longitude: 005-00W, altitude: 119 m

Observation

Le bulletin a été fait il y a 25 minutes, à 02:50 UTC
Vent calme
Température 4°C
Humidité 70%
Pression 1029 hPa
Visibilité 10 km ou plus

METAR: EGHQ 170250Z AUTO 00000KT 9999 NCD 04/M01 Q1029

Heure: 04:15 (03:15 UTC)

Prévision

Le bulletin a été fait il y a 1 heure et 19 minutes, à 01:56 UTC
Prévision valable du 17 à 03 UTC au 17 à 12 UTC
Vent 4 kt de sud-est
Visibilité 10 km ou plus
Quelques nuages à une hauteur de 4500 ft

TAF: EGHQ 170156Z 1703/1712 14004KT 9999 FEW045

Observations et prévisions météorologiques de plus de 4000 aéroports (messages METAR et TAF).

Les stations disponibles sont représentées par des disques jaunes et rouges sur la carte.

Passer la souris dessus pour voir le nom de la station.

Cliquer dessus pour voir les observations et prévisions météorologiques.

Pour changer de carte: cliquez sur les boutons verts avec une croix noire pour zoomer, sur le bouton vert avec un tiret pour effectuer un zoom arrière, ou sur les flèches vertes pour les cartes adjacentes.


METAR-TAF: